Hyde, PA (16843)

12:32 PM EDT on September 29, 2016 (GMT -0400)
Clearfield | | Change Station

Elev 1127 ft 41.02 °N, 78.46 °W | Updated 1 minute ago

Light Rain
Light Rain
57.8 °F
Feels Like 57.8 °F
N
1.0
Wind Variable Wind from NE
Gusts 1.0 mph

Today
High -- | Low -- °F
--% Chance of Precip.
Yesterday
High -- | Low -- °F
Precip. -- in
Pressure 30.24 in
Visibility 9.0 miles
Clouds Mostly Cloudy 600 ft
Overcast 1100 ft
Dew Point 57 °F
Humidity 97%
Rainfall 0.76 in
Snow Depth Not available.
7:08 AM 6:58 PM
Waning Crescent, 2% visible
SPECI KFIG 291601Z AUTO 08009KT 9SM -RA BKN006 OVC011 14/14 A3024 RMK AO2 P0000 T01390139
Pressure 30.24 in
Visibility 9.0 miles
Clouds Mostly Cloudy 600 ft
Overcast 1100 ft
Dew Point 57 °F
Humidity 97%
Rainfall 0.76 in
Snow Depth Not available.
7:08 AM 6:58 PM
Waning Crescent, 2% visible
SPECI KFIG 291601Z AUTO 08009KT 9SM -RA BKN006 OVC011 14/14 A3024 RMK AO2 P0000 T01390139

10-Day Weather Forecast

Almanac

Astronomy

Sep. 29, 2016 Rise Set
Actual Time
Civil Twilight
Nautical Twilight
Astronomical Twilight
Moon
Length of Visible Light
Length of Day
Tomorrow will be .
, % of the Moon is Illuminated

Today's Extremes

State Highs State Lows

Community

WunderPhotos

Upload Photos

1,942,513 photos uploaded!

WunderBlog® & News

Nearby

Air Quality

  Air Quality AQ Index Pollutant
Not available.

Snow Depth

Station Depth Elevation

Earthquake Activity

City Distance Mag. Time & Date
Minimum magnitude displayed is 2.5.

Coastal Water Temperatures

Place Temperature

Stations

Nearby Weather Stations

Station Location Temp. Windchill Dew Point Humidity Wind Precip. Elev Updated Type
                   

Watches & Warnings

There are currently no watches in effect.